Time;durP1;ratioP1;P1;durP2;ratioP2;P2;SDS_P1;SDS_P2;PMS_P1;PMS_P2;Temp;Humidity;BMP_temperature;BMP_pressure;BME280_temperature;BME280_humidity;BME280_pressure;Samples;Min_cycle;Max_cycle;Signal;HPM_P1;HPM_P2
2021/09/30 00:00:47;;;;;;;7.13;1.67;;;;;;;;;;5045555;28;20636;-74
2021/09/30 00:03:12;;;;;;;8.53;2.23;;;;;;;;;;5047878;28;20300;-75
2021/09/30 00:05:41;;;;;;;3.70;1.13;;;;;;;;;;5051081;28;20300;-73
2021/09/30 00:08:06;;;;;;;3.70;1.23;;;;;;;;;;5049655;28;20644;-72
2021/09/30 00:10:32;;;;;;;2.43;1.20;;;;;;;;;;5043244;28;20220;-74
2021/09/30 00:13:06;;;;;;;8.73;1.67;;;;;;;;;;5038050;28;20254;-74
2021/09/30 00:16:07;;;;;;;5.87;1.03;;;;;;;;;;5048740;28;20177;-74
2021/09/30 00:35:03;;;;;;;1.93;1.20;;;;;;;;;;5051205;28;20740;-71
2021/09/30 00:48:15;;;;;;;4.17;1.00;;;;;;;;;;5047892;28;20686;-71
2021/09/30 00:50:51;;;;;;;4.53;1.47;;;;;;;;;;5050803;28;20197;-71
2021/09/30 02:34:46;;;;;;;5.00;1.73;;;;;;;;;;5012701;28;20240;-70
2021/09/30 02:58:32;;;;;;;9.23;1.87;;;;;;;;;;5031961;28;20204;-71
2021/09/30 03:01:03;;;;;;;4.90;1.50;;;;;;;;;;5027719;28;20206;-71
2021/09/30 03:03:30;;;;;;;5.30;1.63;;;;;;;;;;5026588;28;20190;-71
2021/09/30 03:05:56;;;;;;;8.90;1.87;;;;;;;;;;5029321;28;20905;-71
2021/09/30 03:08:24;;;;;;;9.10;1.53;;;;;;;;;;5028194;28;20210;-70
2021/09/30 03:10:51;;;;;;;6.87;1.70;;;;;;;;;;5029676;28;20587;-71
2021/09/30 03:13:17;;;;;;;9.30;2.93;;;;;;;;;;5027970;28;20541;-71
2021/09/30 03:15:48;;;;;;;7.10;1.90;;;;;;;;;;5024893;28;20182;-71
2021/09/30 03:19:02;;;;;;;7.73;1.53;;;;;;;;;;5027454;28;20199;-71
2021/09/30 03:23:28;;;;;;;9.43;1.50;;;;;;;;;;5011344;28;20194;-71
2021/09/30 03:25:54;;;;;;;7.93;1.97;;;;;;;;;;5012233;28;20203;-71
2021/09/30 03:28:21;;;;;;;4.30;1.40;;;;;;;;;;5012035;28;20625;-70
2021/09/30 03:30:47;;;;;;;3.70;1.30;;;;;;;;;;5015913;28;20325;-70
2021/09/30 03:33:13;;;;;;;6.33;1.93;;;;;;;;;;5016184;28;20182;-70
2021/09/30 03:35:39;;;;;;;7.07;2.00;;;;;;;;;;5017943;28;20210;-70
2021/09/30 03:38:05;;;;;;;8.50;2.30;;;;;;;;;;5015266;28;20645;-70
2021/09/30 03:40:30;;;;;;;4.60;1.63;;;;;;;;;;5015691;28;20225;-70
2021/09/30 03:42:55;;;;;;;7.57;1.33;;;;;;;;;;5015155;28;20190;-69
2021/09/30 03:45:20;;;;;;;8.27;2.20;;;;;;;;;;5014730;28;20269;-70
2021/09/30 03:47:46;;;;;;;5.37;2.10;;;;;;;;;;5015342;28;20187;-69
2021/09/30 03:50:21;;;;;;;7.10;1.90;;;;;;;;;;5014220;28;20612;-69
2021/09/30 04:00:58;;;;;;;11.40;1.80;;;;;;;;;;5015155;28;20209;-69
2021/09/30 04:03:23;;;;;;;8.80;1.63;;;;;;;;;;5015360;28;20206;-70
2021/09/30 04:05:48;;;;;;;7.20;1.63;;;;;;;;;;5016741;28;20202;-69
2021/09/30 04:08:13;;;;;;;9.77;2.03;;;;;;;;;;5014326;28;20627;-69
2021/09/30 04:10:39;;;;;;;7.50;2.17;;;;;;;;;;5014469;28;20213;-70
2021/09/30 04:13:04;;;;;;;8.60;2.27;;;;;;;;;;5030737;28;20215;-70
2021/09/30 04:15:29;;;;;;;6.30;1.90;;;;;;;;;;5014510;28;20175;-70
2021/09/30 04:17:54;;;;;;;4.53;1.83;;;;;;;;;;5013898;28;20185;-70
2021/09/30 04:20:20;;;;;;;10.07;2.63;;;;;;;;;;5021102;28;20190;-70
2021/09/30 04:22:45;;;;;;;8.27;2.40;;;;;;;;;;5013208;28;21252;-70
2021/09/30 04:25:11;;;;;;;8.17;2.10;;;;;;;;;;5015424;28;20182;-70
2021/09/30 04:27:36;;;;;;;7.47;1.83;;;;;;;;;;5014068;28;20206;-70
2021/09/30 04:30:03;;;;;;;7.70;2.67;;;;;;;;;;5014609;28;20183;-70
2021/09/30 04:32:28;;;;;;;10.47;2.23;;;;;;;;;;5018737;28;20229;-71
2021/09/30 04:34:53;;;;;;;6.67;1.90;;;;;;;;;;5029516;28;20244;-70
2021/09/30 04:37:19;;;;;;;9.80;2.30;;;;;;;;;;5032139;28;20178;-70
2021/09/30 04:39:44;;;;;;;5.97;2.17;;;;;;;;;;5027627;28;20243;-70
2021/09/30 04:42:09;;;;;;;5.33;2.03;;;;;;;;;;5030752;28;20228;-70
2021/09/30 04:44:34;;;;;;;11.07;2.40;;;;;;;;;;5030596;28;20268;-71
2021/09/30 04:46:59;;;;;;;4.80;2.70;;;;;;;;;;5030173;28;20260;-72
2021/09/30 04:49:25;;;;;;;6.10;2.33;;;;;;;;;;5031633;28;20206;-70
2021/09/30 04:51:50;;;;;;;7.50;2.33;;;;;;;;;;5031890;28;20205;-70
2021/09/30 04:54:15;;;;;;;6.10;2.70;;;;;;;;;;5031417;28;20270;-70
2021/09/30 04:56:40;;;;;;;6.33;2.43;;;;;;;;;;5029948;28;20183;-70
2021/09/30 04:59:05;;;;;;;8.27;3.10;;;;;;;;;;5030992;28;20232;-70
2021/09/30 05:01:31;;;;;;;11.13;2.67;;;;;;;;;;5031723;28;20236;-70
2021/09/30 05:03:56;;;;;;;8.10;2.67;;;;;;;;;;5026405;28;20197;-70
2021/09/30 05:06:21;;;;;;;9.33;2.73;;;;;;;;;;5013747;28;20210;-70
2021/09/30 05:08:50;;;;;;;11.33;3.27;;;;;;;;;;5013387;28;20174;-70
2021/09/30 05:11:17;;;;;;;8.70;2.70;;;;;;;;;;5016202;28;20305;-70
2021/09/30 05:13:43;;;;;;;16.47;3.40;;;;;;;;;;5013436;28;20190;-70
2021/09/30 05:16:10;;;;;;;8.60;2.57;;;;;;;;;;5013023;28;20198;-70
2021/09/30 05:18:36;;;;;;;5.90;2.10;;;;;;;;;;5014840;28;22140;-70
2021/09/30 05:21:02;;;;;;;8.43;3.03;;;;;;;;;;5017203;28;20694;-70
2021/09/30 05:23:27;;;;;;;8.60;2.30;;;;;;;;;;5013910;28;20187;-70
2021/09/30 05:25:52;;;;;;;7.83;2.40;;;;;;;;;;5014279;28;20211;-70
2021/09/30 05:28:18;;;;;;;7.77;2.10;;;;;;;;;;5012777;28;20722;-70
2021/09/30 05:30:43;;;;;;;6.07;2.23;;;;;;;;;;5016330;28;20205;-70
2021/09/30 05:33:08;;;;;;;8.67;2.43;;;;;;;;;;5014307;28;20190;-70
2021/09/30 05:35:34;;;;;;;6.93;2.60;;;;;;;;;;5014059;28;20182;-70
2021/09/30 05:37:59;;;;;;;8.40;2.40;;;;;;;;;;5012635;28;20179;-70
2021/09/30 05:40:26;;;;;;;5.70;2.53;;;;;;;;;;5012359;28;20198;-70
2021/09/30 05:42:53;;;;;;;6.23;2.20;;;;;;;;;;5016313;28;20193;-70
2021/09/30 05:45:19;;;;;;;8.83;2.30;;;;;;;;;;5012908;28;20204;-70
2021/09/30 05:47:44;;;;;;;9.83;2.70;;;;;;;;;;5011515;28;20789;-70
2021/09/30 05:50:10;;;;;;;12.87;3.90;;;;;;;;;;5012301;28;20640;-70
2021/09/30 05:52:35;;;;;;;12.90;2.77;;;;;;;;;;5011688;28;20186;-70
2021/09/30 05:55:01;;;;;;;8.10;2.67;;;;;;;;;;5013407;28;20194;-70
2021/09/30 05:57:26;;;;;;;12.10;3.00;;;;;;;;;;5012721;28;20664;-70
2021/09/30 05:59:51;;;;;;;10.53;2.80;;;;;;;;;;5013522;28;20185;-69
2021/09/30 06:13:07;;;;;;;7.30;2.37;;;;;;;;;;5015969;28;20194;-70
2021/09/30 06:15:35;;;;;;;7.47;1.97;;;;;;;;;;5014564;28;20639;-70
2021/09/30 06:18:01;;;;;;;6.33;2.43;;;;;;;;;;5013369;28;20280;-70
2021/09/30 06:20:27;;;;;;;9.17;2.70;;;;;;;;;;5020857;28;20284;-70
2021/09/30 06:22:53;;;;;;;9.20;2.27;;;;;;;;;;5013244;28;20189;-70
2021/09/30 06:25:18;;;;;;;7.70;3.00;;;;;;;;;;5013225;28;20572;-70
2021/09/30 06:27:44;;;;;;;6.50;2.60;;;;;;;;;;5013274;28;20301;-70
2021/09/30 06:30:09;;;;;;;10.90;2.70;;;;;;;;;;5012684;28;20182;-70
2021/09/30 06:32:34;;;;;;;10.03;2.13;;;;;;;;;;5018234;28;20186;-71
2021/09/30 06:34:59;;;;;;;7.80;1.93;;;;;;;;;;5022001;28;20196;-70
2021/09/30 06:37:25;;;;;;;8.03;2.03;;;;;;;;;;5022919;28;20177;-70
2021/09/30 06:39:50;;;;;;;8.53;1.70;;;;;;;;;;5022712;28;20179;-70
2021/09/30 06:42:15;;;;;;;9.33;2.00;;;;;;;;;;5029698;28;20194;-70
2021/09/30 06:44:40;;;;;;;6.57;2.20;;;;;;;;;;5028922;28;20174;-71
2021/09/30 06:47:05;;;;;;;5.77;1.70;;;;;;;;;;5030544;28;20249;-71
2021/09/30 06:49:31;;;;;;;9.47;2.00;;;;;;;;;;5025822;28;20181;-69
2021/09/30 06:51:56;;;;;;;9.50;2.10;;;;;;;;;;5026555;28;20956;-70
2021/09/30 06:54:21;;;;;;;3.83;1.80;;;;;;;;;;5027826;28;20183;-69
2021/09/30 06:56:49;;;;;;;6.07;1.97;;;;;;;;;;5027841;28;20179;-70
2021/09/30 06:59:23;;;;;;;10.87;2.47;;;;;;;;;;5020738;28;20204;-70
2021/09/30 07:01:48;;;;;;;7.47;2.27;;;;;;;;;;5024293;28;20730;-70
2021/09/30 07:04:13;;;;;;;7.90;2.23;;;;;;;;;;5026846;28;20265;-70
2021/09/30 07:06:39;;;;;;;8.53;2.70;;;;;;;;;;5036923;28;20302;-70
2021/09/30 07:09:04;;;;;;;7.70;2.87;;;;;;;;;;5016257;28;20465;-70
2021/09/30 07:11:29;;;;;;;5.37;2.73;;;;;;;;;;5016072;28;20237;-69
2021/09/30 07:13:54;;;;;;;10.07;2.87;;;;;;;;;;5015356;28;20532;-70
2021/09/30 07:16:20;;;;;;;7.87;3.10;;;;;;;;;;5015534;28;20198;-69
2021/09/30 07:18:45;;;;;;;7.80;2.73;;;;;;;;;;5016972;28;20216;-70
2021/09/30 07:21:10;;;;;;;10.07;3.80;;;;;;;;;;5016763;28;20711;-70
2021/09/30 07:23:35;;;;;;;13.03;3.30;;;;;;;;;;5015442;28;20225;-70
2021/09/30 07:26:00;;;;;;;7.30;3.00;;;;;;;;;;5015768;28;20207;-70
2021/09/30 07:28:27;;;;;;;6.50;3.50;;;;;;;;;;5016216;28;20178;-70
2021/09/30 07:30:53;;;;;;;7.90;3.73;;;;;;;;;;5015678;28;20281;-69
2021/09/30 07:33:20;;;;;;;6.03;3.07;;;;;;;;;;5017471;28;20269;-70
2021/09/30 07:35:45;;;;;;;7.88;3.22;;;;;;;;;;5015471;28;20621;-69
2021/09/30 07:38:10;;;;;;;10.20;3.17;;;;;;;;;;5017368;28;20175;-69
2021/09/30 07:40:36;;;;;;;7.80;3.70;;;;;;;;;;5015653;28;20202;-69
2021/09/30 07:43:01;;;;;;;6.17;3.50;;;;;;;;;;5016312;28;20554;-69
2021/09/30 07:45:26;;;;;;;7.68;3.45;;;;;;;;;;5014666;28;20182;-69
2021/09/30 07:47:51;;;;;;;9.13;3.58;;;;;;;;;;5014813;28;20261;-70
2021/09/30 07:50:17;;;;;;;8.20;3.53;;;;;;;;;;5013684;28;20644;-70
2021/09/30 07:52:42;;;;;;;8.07;3.70;;;;;;;;;;5015456;28;20286;-69
2021/09/30 07:55:08;;;;;;;10.07;4.18;;;;;;;;;;5014325;28;20190;-69
2021/09/30 07:57:33;;;;;;;7.35;3.88;;;;;;;;;;5014261;28;20232;-69
2021/09/30 07:59:58;;;;;;;6.40;3.45;;;;;;;;;;5013367;28;20190;-69
2021/09/30 08:02:23;;;;;;;7.88;3.72;;;;;;;;;;5014730;28;20209;-70
2021/09/30 08:04:48;;;;;;;9.02;4.30;;;;;;;;;;5015922;28;20629;-70
2021/09/30 08:07:14;;;;;;;14.07;4.95;;;;;;;;;;5014628;28;20244;-69
2021/09/30 08:09:39;;;;;;;7.28;3.83;;;;;;;;;;5012605;28;20174;-69
2021/09/30 08:12:05;;;;;;;7.15;3.28;;;;;;;;;;5019777;23;20241;-70
2021/09/30 08:14:30;;;;;;;6.65;3.47;;;;;;;;;;5004650;28;20194;-69
2021/09/30 08:16:55;;;;;;;9.77;3.90;;;;;;;;;;5003090;28;20198;-71
2021/09/30 08:19:21;;;;;;;8.90;4.68;;;;;;;;;;4998482;28;20182;-70
2021/09/30 08:21:46;;;;;;;7.55;4.03;;;;;;;;;;5003188;28;21869;-69
2021/09/30 08:24:12;;;;;;;7.38;3.60;;;;;;;;;;5001263;28;20567;-70
2021/09/30 08:26:37;;;;;;;9.50;4.10;;;;;;;;;;5002561;28;20533;-70
2021/09/30 08:29:03;;;;;;;8.38;3.72;;;;;;;;;;5002326;28;20199;-70
2021/09/30 08:31:28;;;;;;;8.65;3.25;;;;;;;;;;4999544;28;20225;-70
2021/09/30 08:33:58;;;;;;;9.80;3.40;;;;;;;;;;5020007;28;20182;-70
2021/09/30 08:36:23;;;;;;;9.25;2.75;;;;;;;;;;5030478;28;20256;-70
2021/09/30 08:38:48;;;;;;;6.88;2.85;;;;;;;;;;5009497;28;20225;-70
2021/09/30 08:41:14;;;;;;;6.43;3.15;;;;;;;;;;5008689;28;20230;-70
2021/09/30 08:43:40;;;;;;;7.22;2.83;;;;;;;;;;5010604;28;20516;-71
2021/09/30 08:46:06;;;;;;;10.30;3.03;;;;;;;;;;5011358;28;20282;-69
2021/09/30 08:48:32;;;;;;;5.60;2.28;;;;;;;;;;5012469;28;20254;-71
2021/09/30 08:50:57;;;;;;;5.95;2.55;;;;;;;;;;5006762;28;20277;-71
2021/09/30 08:53:23;;;;;;;6.93;2.15;;;;;;;;;;5006120;28;20265;-69
2021/09/30 08:55:48;;;;;;;6.13;2.10;;;;;;;;;;5009376;28;20542;-70
2021/09/30 08:58:13;;;;;;;6.20;2.05;;;;;;;;;;5008710;28;20179;-70
2021/09/30 09:00:42;;;;;;;7.15;1.92;;;;;;;;;;5011686;28;20209;-72
2021/09/30 09:03:07;;;;;;;5.07;1.70;;;;;;;;;;5003968;28;20528;-71
2021/09/30 09:05:35;;;;;;;8.40;2.30;;;;;;;;;;5009846;28;20179;-71
2021/09/30 09:08:02;;;;;;;5.90;1.67;;;;;;;;;;5007094;28;20695;-70
2021/09/30 09:10:29;;;;;;;4.68;1.67;;;;;;;;;;5008261;28;20198;-70
2021/09/30 09:13:06;;;;;;;6.57;2.33;;;;;;;;;;5009450;28;20209;-69
2021/09/30 09:15:54;;;;;;;9.10;2.20;;;;;;;;;;5009007;28;20181;-70
2021/09/30 09:18:22;;;;;;;4.93;1.60;;;;;;;;;;5009309;28;20179;-70
2021/09/30 09:21:06;;;;;;;8.93;2.13;;;;;;;;;;5000529;28;20191;-70
2021/09/30 09:23:32;;;;;;;5.32;1.55;;;;;;;;;;4996107;28;20672;-68
2021/09/30 09:26:12;;;;;;;5.88;1.90;;;;;;;;;;4999826;28;20215;-67
2021/09/30 09:28:39;;;;;;;6.43;1.60;;;;;;;;;;5003439;28;20179;-69
2021/09/30 09:31:04;;;;;;;3.58;1.58;;;;;;;;;;5005302;28;20199;-68
2021/09/30 09:33:32;;;;;;;6.63;1.60;;;;;;;;;;5016490;28;20189;-71
2021/09/30 09:35:59;;;;;;;4.93;1.60;;;;;;;;;;5005631;28;20183;-70
2021/09/30 09:38:26;;;;;;;7.53;1.60;;;;;;;;;;5005195;28;20210;-70
2021/09/30 09:41:00;;;;;;;6.32;1.30;;;;;;;;;;5000853;28;20767;-68
2021/09/30 09:43:26;;;;;;;4.32;1.48;;;;;;;;;;5004690;28;20664;-69
2021/09/30 09:45:51;;;;;;;6.30;1.50;;;;;;;;;;5014182;28;20207;-70
2021/09/30 09:48:16;;;;;;;5.50;1.43;;;;;;;;;;5001681;28;20233;-70
2021/09/30 09:50:41;;;;;;;5.20;1.70;;;;;;;;;;5000624;28;20808;-74
2021/09/30 09:53:06;;;;;;;4.70;1.13;;;;;;;;;;5000135;28;20269;-70
2021/09/30 09:55:38;;;;;;;5.13;1.40;;;;;;;;;;4996536;28;20430;-71
2021/09/30 09:58:11;;;;;;;6.80;1.48;;;;;;;;;;5002840;28;21565;-69
2021/09/30 10:00:38;;;;;;;5.28;1.60;;;;;;;;;;5001344;28;20174;-71
2021/09/30 10:03:12;;;;;;;3.45;1.35;;;;;;;;;;5003773;28;20679;-71
2021/09/30 10:05:38;;;;;;;4.97;2.00;;;;;;;;;;5000674;28;20279;-70
2021/09/30 10:08:03;;;;;;;6.65;1.65;;;;;;;;;;5001524;28;20278;-69
2021/09/30 10:10:29;;;;;;;7.03;2.20;;;;;;;;;;4999834;28;20313;-71
2021/09/30 10:12:54;;;;;;;8.25;2.10;;;;;;;;;;5001213;28;20214;-69
2021/09/30 10:15:19;;;;;;;4.53;1.60;;;;;;;;;;5001579;28;20175;-70
2021/09/30 10:17:45;;;;;;;7.85;1.92;;;;;;;;;;5001846;28;20179;-72
2021/09/30 10:20:10;;;;;;;5.87;1.67;;;;;;;;;;5000549;28;20197;-69
2021/09/30 10:22:36;;;;;;;3.85;1.40;;;;;;;;;;5000332;28;20534;-70
2021/09/30 10:25:02;;;;;;;4.20;1.30;;;;;;;;;;4998874;28;20194;-70
2021/09/30 10:27:27;;;;;;;4.90;1.42;;;;;;;;;;5000771;28;20658;-69
2021/09/30 10:29:54;;;;;;;9.20;1.95;;;;;;;;;;5000040;28;20364;-70
2021/09/30 10:32:20;;;;;;;7.70;1.70;;;;;;;;;;4998686;28;20650;-70
2021/09/30 10:34:47;;;;;;;8.80;1.92;;;;;;;;;;5009503;28;20187;-70
2021/09/30 10:37:26;;;;;;;7.50;1.92;;;;;;;;;;5007889;28;20671;-70
2021/09/30 10:40:12;;;;;;;5.18;1.77;;;;;;;;;;5003343;28;20244;-69
2021/09/30 10:42:40;;;;;;;9.02;1.88;;;;;;;;;;5000309;28;20301;-70
2021/09/30 10:45:13;;;;;;;7.15;1.80;;;;;;;;;;5006772;28;20198;-70
2021/09/30 10:47:38;;;;;;;4.07;1.42;;;;;;;;;;5003876;28;20208;-70
2021/09/30 10:50:03;;;;;;;3.72;1.85;;;;;;;;;;5004654;28;20258;-70
2021/09/30 10:52:33;;;;;;;6.85;1.88;;;;;;;;;;5009928;28;20278;-70
2021/09/30 10:55:02;;;;;;;5.68;1.70;;;;;;;;;;5007395;28;20182;-71
2021/09/30 10:57:27;;;;;;;3.92;1.33;;;;;;;;;;5010171;28;20179;-71
2021/09/30 10:59:52;;;;;;;4.15;1.25;;;;;;;;;;5007650;28;20562;-69
2021/09/30 11:02:17;;;;;;;5.10;1.52;;;;;;;;;;5010510;28;20464;-72
2021/09/30 11:05:03;;;;;;;5.45;1.30;;;;;;;;;;5013805;28;20558;-68
2021/09/30 11:07:28;;;;;;;3.65;1.60;;;;;;;;;;5005318;28;20210;-68
2021/09/30 11:10:12;;;;;;;4.75;1.60;;;;;;;;;;5005245;28;20715;-69
2021/09/30 11:12:37;;;;;;;3.13;1.13;;;;;;;;;;5009304;28;20214;-68
2021/09/30 11:15:02;;;;;;;6.07;1.20;;;;;;;;;;5006703;28;20179;-69
2021/09/30 11:17:37;;;;;;;3.95;1.55;;;;;;;;;;5010269;28;20462;-68
2021/09/30 11:20:21;;;;;;;4.57;1.00;;;;;;;;;;5010153;28;20656;-68
2021/09/30 11:22:46;;;;;;;5.28;1.65;;;;;;;;;;5007848;28;20203;-69
2021/09/30 11:25:11;;;;;;;5.13;1.20;;;;;;;;;;4997403;28;20547;-69
2021/09/30 11:27:37;;;;;;;4.33;1.03;;;;;;;;;;4997899;28;20211;-69
2021/09/30 11:30:34;;;;;;;7.05;1.42;;;;;;;;;;4994130;28;20423;-70
2021/09/30 11:33:06;;;;;;;2.90;1.13;;;;;;;;;;4992131;28;20307;-70
2021/09/30 11:35:32;;;;;;;4.55;1.45;;;;;;;;;;5000704;28;20232;-71
2021/09/30 11:37:57;;;;;;;2.08;1.05;;;;;;;;;;5005137;28;20195;-70
2021/09/30 11:40:23;;;;;;;8.23;1.30;;;;;;;;;;4998334;28;20188;-71
2021/09/30 11:42:49;;;;;;;3.95;1.50;;;;;;;;;;4997332;28;20285;-69
2021/09/30 11:45:16;;;;;;;4.25;1.48;;;;;;;;;;4998908;28;20273;-69
2021/09/30 11:47:42;;;;;;;4.22;1.10;;;;;;;;;;4994375;28;20211;-69
2021/09/30 11:50:14;;;;;;;3.80;0.95;;;;;;;;;;5002754;28;20186;-70
2021/09/30 11:52:39;;;;;;;9.05;1.20;;;;;;;;;;5000697;28;20700;-71
2021/09/30 11:55:12;;;;;;;8.65;1.52;;;;;;;;;;4998565;28;20184;-69
2021/09/30 11:57:37;;;;;;;3.17;1.20;;;;;;;;;;4997269;28;20198;-70
2021/09/30 12:00:09;;;;;;;5.68;1.58;;;;;;;;;;5011541;28;20193;-70
2021/09/30 12:02:34;;;;;;;3.83;1.27;;;;;;;;;;4999927;28;20695;-70
2021/09/30 12:05:00;;;;;;;4.77;1.00;;;;;;;;;;5000081;28;20192;-68
2021/09/30 12:07:27;;;;;;;3.58;1.00;;;;;;;;;;4998517;28;20455;-69
2021/09/30 12:09:53;;;;;;;4.40;1.40;;;;;;;;;;4998146;28;20653;-70
2021/09/30 12:12:25;;;;;;;4.90;1.23;;;;;;;;;;4992589;28;20239;-70
2021/09/30 12:14:52;;;;;;;4.57;1.40;;;;;;;;;;4999728;28;20284;-72
2021/09/30 12:17:18;;;;;;;3.28;1.10;;;;;;;;;;4999195;28;20194;-69
2021/09/30 12:19:47;;;;;;;6.40;1.67;;;;;;;;;;5004118;28;20197;-73
2021/09/30 12:22:21;;;;;;;3.25;0.93;;;;;;;;;;5003572;28;20205;-70
2021/09/30 12:24:48;;;;;;;5.13;1.42;;;;;;;;;;5004484;28;20228;-70
2021/09/30 12:27:14;;;;;;;4.43;1.00;;;;;;;;;;4996803;28;20341;-71
2021/09/30 12:29:44;;;;;;;3.65;0.90;;;;;;;;;;4998314;28;20237;-71
2021/09/30 12:32:12;;;;;;;5.10;1.40;;;;;;;;;;5003261;28;20191;-71
2021/09/30 12:34:37;;;;;;;6.90;1.35;;;;;;;;;;5004175;28;20887;-71
2021/09/30 12:37:02;;;;;;;7.95;1.00;;;;;;;;;;5004661;28;20190;-68
2021/09/30 12:39:29;;;;;;;4.20;1.00;;;;;;;;;;5010878;28;20349;-71
2021/09/30 12:41:55;;;;;;;7.22;1.05;;;;;;;;;;5010389;28;20518;-69
2021/09/30 12:44:20;;;;;;;4.03;1.10;;;;;;;;;;5010922;28;20261;-70
2021/09/30 12:46:47;;;;;;;6.80;1.17;;;;;;;;;;5005227;28;20653;-70
2021/09/30 12:49:13;;;;;;;3.45;1.27;;;;;;;;;;5010595;28;20258;-71
2021/09/30 12:51:39;;;;;;;8.38;1.45;;;;;;;;;;5011087;28;20286;-70
2021/09/30 12:54:04;;;;;;;8.73;1.45;;;;;;;;;;5013071;28;20189;-70
2021/09/30 12:56:31;;;;;;;6.85;1.42;;;;;;;;;;5001328;28;20190;-70
2021/09/30 12:59:08;;;;;;;5.88;1.13;;;;;;;;;;5006996;28;20548;-69
2021/09/30 13:01:35;;;;;;;5.20;1.55;;;;;;;;;;4998005;28;20302;-70
2021/09/30 13:04:03;;;;;;;4.68;1.20;;;;;;;;;;5011151;28;20183;-71
2021/09/30 13:06:28;;;;;;;5.93;1.40;;;;;;;;;;5006244;28;20282;-71
2021/09/30 13:08:53;;;;;;;5.32;1.10;;;;;;;;;;5006399;28;20277;-70
2021/09/30 13:11:25;;;;;;;5.88;1.55;;;;;;;;;;5001547;28;20594;-69
2021/09/30 13:14:08;;;;;;;7.43;1.30;;;;;;;;;;5001965;28;20190;-70
2021/09/30 13:16:34;;;;;;;6.95;1.60;;;;;;;;;;4997341;28;20182;-69
2021/09/30 13:18:59;;;;;;;3.57;1.27;;;;;;;;;;5000308;28;20183;-70
2021/09/30 13:21:24;;;;;;;3.95;1.20;;;;;;;;;;5004701;28;20605;-68
2021/09/30 13:23:50;;;;;;;4.82;1.20;;;;;;;;;;5001602;28;20683;-69
2021/09/30 13:26:15;;;;;;;4.53;1.23;;;;;;;;;;4999410;28;20652;-69
2021/09/30 13:28:40;;;;;;;5.10;1.13;;;;;;;;;;4998027;28;21165;-69
2021/09/30 13:31:05;;;;;;;8.18;1.63;;;;;;;;;;5002543;28;20206;-69
2021/09/30 13:33:31;;;;;;;8.00;1.50;;;;;;;;;;5002551;28;20179;-70
2021/09/30 13:35:56;;;;;;;6.25;1.52;;;;;;;;;;4996561;28;20222;-69
2021/09/30 13:38:21;;;;;;;4.75;1.40;;;;;;;;;;4996749;28;20696;-68
2021/09/30 13:40:47;;;;;;;3.30;1.05;;;;;;;;;;5002225;28;20206;-69
2021/09/30 13:43:13;;;;;;;5.53;1.33;;;;;;;;;;4996929;28;20207;-70
2021/09/30 13:45:38;;;;;;;5.50;1.25;;;;;;;;;;4996923;28;20693;-70
2021/09/30 13:48:04;;;;;;;8.35;2.45;;;;;;;;;;5003512;28;20219;-70
2021/09/30 13:50:29;;;;;;;4.93;1.67;;;;;;;;;;4998996;28;20199;-71
2021/09/30 13:52:54;;;;;;;6.85;1.23;;;;;;;;;;4997425;28;20198;-70
2021/09/30 13:55:21;;;;;;;4.47;1.08;;;;;;;;;;4998502;28;20178;-69
2021/09/30 13:57:46;;;;;;;6.40;2.03;;;;;;;;;;4995899;28;20198;-69
2021/09/30 14:00:14;;;;;;;8.35;1.60;;;;;;;;;;4997024;28;20206;-69
2021/09/30 14:02:41;;;;;;;5.43;1.42;;;;;;;;;;4998236;28;20217;-69
2021/09/30 14:05:08;;;;;;;5.70;1.48;;;;;;;;;;4998813;28;20278;-68
2021/09/30 14:07:35;;;;;;;4.95;1.02;;;;;;;;;;4997847;28;20209;-69
2021/09/30 14:10:01;;;;;;;4.93;1.50;;;;;;;;;;4994904;28;20167;-69
2021/09/30 14:12:27;;;;;;;7.22;2.22;;;;;;;;;;5005768;22;20300;-71
2021/09/30 14:14:52;;;;;;;5.32;1.30;;;;;;;;;;4977834;28;20629;-70
2021/09/30 14:17:17;;;;;;;6.97;1.42;;;;;;;;;;4985062;28;20182;-70
2021/09/30 14:19:42;;;;;;;4.82;1.05;;;;;;;;;;4984930;28;20183;-68
2021/09/30 14:22:08;;;;;;;7.60;1.48;;;;;;;;;;4980326;28;20211;-68
2021/09/30 14:24:33;;;;;;;3.45;1.45;;;;;;;;;;4977177;28;20401;-68
2021/09/30 14:26:59;;;;;;;4.82;1.10;;;;;;;;;;4984320;28;20307;-68
2021/09/30 14:29:24;;;;;;;6.45;1.83;;;;;;;;;;4981621;28;20233;-68
2021/09/30 14:31:50;;;;;;;6.32;1.65;;;;;;;;;;4978541;28;20211;-69
2021/09/30 14:34:15;;;;;;;7.88;1.85;;;;;;;;;;4989539;28;20168;-69
2021/09/30 14:36:40;;;;;;;5.65;1.30;;;;;;;;;;4985318;28;20729;-71
2021/09/30 14:39:06;;;;;;;2.60;1.30;;;;;;;;;;4987326;28;20369;-70
2021/09/30 14:41:32;;;;;;;10.52;1.67;;;;;;;;;;5002874;28;20213;-70
2021/09/30 14:43:57;;;;;;;7.05;1.73;;;;;;;;;;4983310;28;20704;-70
2021/09/30 14:46:22;;;;;;;6.22;1.67;;;;;;;;;;4987190;28;20207;-69
2021/09/30 14:48:48;;;;;;;6.53;1.35;;;;;;;;;;4985117;28;20195;-70
2021/09/30 14:51:14;;;;;;;6.15;1.33;;;;;;;;;;4986185;28;20202;-70
2021/09/30 14:53:40;;;;;;;5.68;1.60;;;;;;;;;;4984272;28;20207;-70
2021/09/30 14:56:05;;;;;;;5.80;2.33;;;;;;;;;;4974731;28;22247;-67
2021/09/30 14:58:31;;;;;;;5.63;2.08;;;;;;;;;;4983709;28;20202;-70
2021/09/30 15:00:56;;;;;;;5.72;1.45;;;;;;;;;;4985765;28;20250;-68
2021/09/30 15:03:22;;;;;;;7.85;1.63;;;;;;;;;;4987297;28;20203;-70
2021/09/30 15:05:47;;;;;;;4.95;1.48;;;;;;;;;;4979825;28;20184;-70
2021/09/30 15:08:12;;;;;;;3.35;1.10;;;;;;;;;;4983244;28;20254;-70
2021/09/30 15:10:38;;;;;;;5.38;1.35;;;;;;;;;;4986436;28;20609;-70
2021/09/30 15:13:03;;;;;;;6.68;1.30;;;;;;;;;;4984816;28;20229;-68
2021/09/30 15:15:29;;;;;;;6.47;1.55;;;;;;;;;;5003227;28;20712;-69
2021/09/30 15:17:58;;;;;;;5.30;1.00;;;;;;;;;;4989279;28;20168;-67
2021/09/30 15:23:04;;;;;;;4.53;1.15;;;;;;;;;;4981271;28;20213;-68
2021/09/30 15:25:30;;;;;;;5.28;1.60;;;;;;;;;;4976993;28;20194;-71
2021/09/30 15:27:56;;;;;;;8.05;1.65;;;;;;;;;;4987744;28;20258;-67
2021/09/30 15:30:21;;;;;;;7.57;1.25;;;;;;;;;;4985110;28;20186;-68
2021/09/30 15:32:46;;;;;;;3.22;1.77;;;;;;;;;;4988447;28;20702;-68
2021/09/30 15:35:12;;;;;;;5.53;1.33;;;;;;;;;;4986756;28;20175;-68
2021/09/30 15:37:37;;;;;;;3.25;1.30;;;;;;;;;;4985711;28;20183;-68
2021/09/30 15:40:04;;;;;;;3.33;1.10;;;;;;;;;;4982376;28;20211;-67
2021/09/30 15:42:29;;;;;;;3.13;1.15;;;;;;;;;;4983400;28;20198;-69
2021/09/30 15:44:56;;;;;;;4.53;1.55;;;;;;;;;;4984754;28;20188;-68
2021/09/30 15:47:22;;;;;;;6.35;1.30;;;;;;;;;;4984627;28;20199;-70
2021/09/30 15:49:47;;;;;;;6.15;1.70;;;;;;;;;;4981082;28;20736;-68
2021/09/30 15:52:12;;;;;;;6.70;1.73;;;;;;;;;;4985077;28;20669;-68
2021/09/30 15:54:37;;;;;;;5.20;1.30;;;;;;;;;;4983393;28;20574;-69
2021/09/30 15:57:03;;;;;;;8.15;1.90;;;;;;;;;;4985207;28;20226;-70
2021/09/30 15:59:28;;;;;;;7.50;1.40;;;;;;;;;;4985860;28;20176;-68
2021/09/30 16:01:53;;;;;;;9.40;1.60;;;;;;;;;;4983125;28;20261;-68
2021/09/30 16:04:19;;;;;;;5.22;1.35;;;;;;;;;;4984659;28;20183;-68
2021/09/30 16:06:44;;;;;;;6.37;1.50;;;;;;;;;;4983160;28;20210;-67
2021/09/30 16:09:09;;;;;;;8.73;2.03;;;;;;;;;;4986732;28;20432;-68
2021/09/30 16:11:35;;;;;;;2.97;1.25;;;;;;;;;;4983194;28;20203;-68
2021/09/30 16:14:00;;;;;;;8.60;1.73;;;;;;;;;;4983121;28;20179;-70
2021/09/30 16:16:25;;;;;;;7.78;1.60;;;;;;;;;;4983927;28;21013;-70
2021/09/30 16:18:50;;;;;;;7.00;2.00;;;;;;;;;;4986805;28;20604;-68
2021/09/30 16:21:15;;;;;;;5.78;1.90;;;;;;;;;;4983126;28;20469;-68
2021/09/30 16:23:41;;;;;;;8.32;1.75;;;;;;;;;;4985334;28;20194;-70
2021/09/30 16:26:07;;;;;;;6.70;1.35;;;;;;;;;;4982395;28;20191;-67
2021/09/30 16:28:32;;;;;;;4.95;2.00;;;;;;;;;;4984216;28;20256;-68
2021/09/30 16:30:57;;;;;;;5.95;1.35;;;;;;;;;;4989928;28;20560;-69
2021/09/30 16:33:24;;;;;;;8.02;1.65;;;;;;;;;;4987434;28;20199;-69
2021/09/30 16:35:49;;;;;;;5.32;1.00;;;;;;;;;;4993916;28;20176;-68
2021/09/30 16:38:15;;;;;;;4.82;1.85;;;;;;;;;;4987042;28;20188;-70
2021/09/30 16:40:40;;;;;;;4.38;1.50;;;;;;;;;;5007473;28;20655;-68
2021/09/30 16:43:06;;;;;;;6.18;1.48;;;;;;;;;;5007207;28;20258;-70
2021/09/30 16:45:31;;;;;;;8.93;1.90;;;;;;;;;;4991584;28;20192;-68
2021/09/30 16:47:56;;;;;;;5.78;1.23;;;;;;;;;;5008586;28;20286;-68
2021/09/30 16:50:21;;;;;;;3.17;1.52;;;;;;;;;;4990441;28;20561;-68
2021/09/30 16:52:47;;;;;;;5.97;1.30;;;;;;;;;;4988659;28;20200;-68
2021/09/30 16:55:13;;;;;;;4.55;1.30;;;;;;;;;;4989599;28;20183;-70
2021/09/30 16:57:41;;;;;;;6.22;1.27;;;;;;;;;;4989490;28;20203;-69
2021/09/30 17:00:08;;;;;;;4.07;1.80;;;;;;;;;;4992264;28;20194;-69
2021/09/30 17:02:34;;;;;;;2.83;1.02;;;;;;;;;;4989079;28;20199;-69
2021/09/30 17:04:59;;;;;;;4.38;1.35;;;;;;;;;;4999000;28;20285;-68
2021/09/30 17:07:24;;;;;;;5.28;1.27;;;;;;;;;;4988637;28;20203;-68
2021/09/30 17:09:49;;;;;;;8.60;1.33;;;;;;;;;;4991526;28;20203;-67
2021/09/30 17:12:15;;;;;;;4.13;1.88;;;;;;;;;;4986960;28;20211;-67
2021/09/30 17:14:40;;;;;;;3.92;0.93;;;;;;;;;;4985181;28;20560;-67
2021/09/30 17:17:05;;;;;;;6.53;1.30;;;;;;;;;;4993002;28;20183;-70
2021/09/30 17:19:33;;;;;;;1.63;1.17;;;;;;;;;;4990902;28;20201;-68
2021/09/30 17:22:00;;;;;;;5.03;1.85;;;;;;;;;;4980104;28;20217;-68
2021/09/30 17:24:25;;;;;;;4.70;1.52;;;;;;;;;;4982607;28;20182;-68
2021/09/30 17:26:51;;;;;;;6.18;1.15;;;;;;;;;;4978553;28;20220;-70
2021/09/30 17:29:16;;;;;;;6.05;1.30;;;;;;;;;;4980803;28;20175;-69
2021/09/30 17:31:41;;;;;;;2.50;0.73;;;;;;;;;;4997504;28;20203;-70
2021/09/30 17:34:09;;;;;;;3.13;1.13;;;;;;;;;;4986247;28;20671;-68